Time;durP1;ratioP1;P1;durP2;ratioP2;P2;SDS_P1;SDS_P2;PMS_P1;PMS_P2;Temp;Humidity;BMP_temperature;BMP_pressure;BME280_temperature;BME280_humidity;BME280_pressure;Samples;Min_cycle;Max_cycle;Signal;HPM_P1;HPM_P2
2021/09/27 00:01:24;;;;;;;8.30;4.70;;;;;;;12.76;77.84;99987.14;461091;1191;142272;-66
2021/09/27 00:11:30;;;;;;;10.70;5.70;;;;;;;12.68;77.72;99981.91;460546;1191;142127;-65
2021/09/27 00:21:37;;;;;;;6.60;4.90;;;;;;;12.58;77.67;99980.43;461945;1191;142962;-65
2021/09/27 00:31:45;;;;;;;10.50;5.10;;;;;;;12.52;77.59;99976.30;460910;1192;142037;-65
2021/09/27 00:41:51;;;;;;;19.20;6.30;;;;;;;12.44;77.60;99973.41;460209;1192;144022;-58
2021/09/27 00:51:58;;;;;;;7.60;4.60;;;;;;;12.32;77.54;99974.38;461471;1192;142730;-58
2021/09/27 01:02:05;;;;;;;7.60;5.30;;;;;;;12.22;77.63;99969.46;465890;1190;141314;-59
2021/09/27 01:12:28;;;;;;;8.20;4.80;;;;;;;12.16;77.58;99963.66;462672;1190;142057;-60
2021/09/27 01:22:54;;;;;;;6.80;4.70;;;;;;;12.10;77.65;99971.94;477835;1190;141072;-60
2021/09/27 01:33:02;;;;;;;9.00;4.60;;;;;;;12.15;77.63;99967.08;472556;1190;142041;-60
2021/09/27 01:43:15;;;;;;;12.50;6.10;;;;;;;12.16;77.43;99964.19;477848;1190;141459;-61
2021/09/27 01:53:25;;;;;;;8.30;4.40;;;;;;;12.21;77.16;99974.95;476992;1190;142163;-61
2021/09/27 02:03:38;;;;;;;11.30;3.80;;;;;;;12.27;76.93;99979.62;470525;1190;141473;-61
2021/09/27 02:13:50;;;;;;;7.60;3.80;;;;;;;12.23;76.63;99975.86;477792;1190;141768;-61
2021/09/27 02:24:05;;;;;;;6.60;3.40;;;;;;;12.06;76.56;99965.38;466575;1190;142742;-59
2021/09/27 02:34:18;;;;;;;6.30;3.70;;;;;;;11.82;76.64;99968.24;477487;1191;142923;-59
2021/09/27 02:44:24;;;;;;;8.90;4.00;;;;;;;11.60;76.93;99962.95;476943;1190;141939;-60
2021/09/27 02:54:34;;;;;;;9.30;4.70;;;;;;;11.43;77.07;99957.34;477806;1190;142419;-60
2021/09/27 03:04:54;;;;;;;11.60;5.00;;;;;;;11.27;77.33;99957.41;465847;1189;141466;-58
2021/09/27 03:15:26;;;;;;;5.70;4.40;;;;;;;11.09;77.81;99954.98;470276;1190;147850;-61
2021/09/27 03:25:45;;;;;;;8.10;4.30;;;;;;;10.92;77.95;99952.99;466259;1190;141386;-59
2021/09/27 03:36:09;;;;;;;10.60;5.20;;;;;;;10.73;78.35;99943.27;461154;1190;145037;-60
2021/09/27 03:46:22;;;;;;;10.80;5.00;;;;;;;10.54;78.75;99945.98;477916;1190;142283;-61
2021/09/27 03:56:33;;;;;;;7.30;4.60;;;;;;;10.41;78.95;99935.86;474958;1190;162797;-60
2021/09/27 04:06:57;;;;;;;13.50;7.10;;;;;;;10.31;79.18;99936.37;473177;1190;141132;-59
2021/09/27 04:17:12;;;;;;;9.10;5.50;;;;;;;10.25;79.48;99929.22;464184;1190;141829;-61
2021/09/27 04:27:32;;;;;;;9.50;5.40;;;;;;;10.20;79.59;99929.46;461920;1190;145217;-59
2021/09/27 04:37:39;;;;;;;8.60;5.40;;;;;;;10.22;79.72;99928.48;475105;1191;141800;-60
2021/09/27 04:47:57;;;;;;;9.00;5.60;;;;;;;10.26;79.70;99921.64;476567;1191;141743;-60
2021/09/27 04:58:25;;;;;;;7.60;4.70;;;;;;;10.43;79.66;99931.36;477503;1190;142784;-60
2021/09/27 05:08:49;;;;;;;7.60;5.30;;;;;;;10.83;79.33;99944.27;476846;1190;141839;-61
2021/09/27 05:19:15;;;;;;;10.20;5.20;;;;;;;11.36;78.65;99935.13;477842;1190;141022;-60
2021/09/27 05:29:34;;;;;;;8.10;4.60;;;;;;;12.07;77.71;99933.69;476939;1190;141573;-60
2021/09/27 05:39:57;;;;;;;8.00;4.10;;;;;;;14.30;76.07;99922.34;477799;1190;143524;-61
2021/09/27 05:50:13;;;;;;;7.80;3.80;;;;;;;18.55;70.56;99917.36;477477;1191;141065;-62
2021/09/27 06:00:27;;;;;;;5.60;3.30;;;;;;;22.40;64.40;99916.30;477663;1190;141127;-60
2021/09/27 06:10:43;;;;;;;7.70;4.30;;;;;;;24.61;58.89;99916.98;477643;1190;141982;-61
2021/09/27 06:21:02;;;;;;;5.90;3.30;;;;;;;26.68;54.43;99912.80;477060;1190;143291;-62
2021/09/27 06:31:14;;;;;;;6.00;3.30;;;;;;;28.35;50.12;99914.39;477813;1189;141133;-62
2021/09/27 06:41:23;;;;;;;6.10;3.40;;;;;;;30.52;46.93;99916.31;476971;1191;141803;-61
2021/09/27 06:51:29;;;;;;;5.00;3.20;;;;;;;31.96;43.19;99919.00;477859;1190;141446;-61
2021/09/27 07:01:35;;;;;;;5.40;3.00;;;;;;;33.79;40.82;99921.77;477793;1190;140629;-62
2021/09/27 07:11:42;;;;;;;5.70;3.40;;;;;;;35.00;37.74;99922.80;472405;1191;140639;-61
2021/09/27 07:21:48;;;;;;;5.30;3.20;;;;;;;35.72;35.77;99928.21;460702;1177;140524;-62
2021/09/27 07:31:54;;;;;;;4.90;2.60;;;;;;;36.00;33.60;99929.59;465348;1184;141142;-66
2021/09/27 07:42:00;;;;;;;6.10;3.30;;;;;;;35.46;32.59;99922.70;475572;1191;141295;-66
2021/09/27 07:52:07;;;;;;;6.30;3.10;;;;;;;35.25;32.05;99922.28;474192;1192;140354;-69
2021/09/27 08:02:18;;;;;;;4.40;3.00;;;;;;;35.55;31.88;99926.90;473968;1191;141392;-69
2021/09/27 08:12:24;;;;;;;5.00;2.60;;;;;;;37.13;30.46;99934.87;477685;1190;140977;-65
2021/09/27 08:22:30;;;;;;;3.70;2.60;;;;;;;38.13;29.30;99931.64;477216;1184;141044;-67
2021/09/27 08:32:36;;;;;;;6.00;2.70;;;;;;;39.45;28.07;99935.63;464009;1191;140131;-66
2021/09/27 08:42:43;;;;;;;5.60;3.10;;;;;;;39.59;27.17;99935.04;473742;1191;182768;-65
2021/09/27 08:52:49;;;;;;;3.90;2.70;;;;;;;38.38;26.88;99935.10;461771;1183;20001781;-71
2021/09/27 09:03:01;;;;;;;2.80;2.50;;;;;;;31.39;30.13;99934.48;473311;1189;140916;-68
2021/09/27 09:13:10;;;;;;;8.30;4.20;;;;;;;26.20;34.64;99926.90;468283;1190;152814;-70
2021/09/27 09:23:21;;;;;;;6.60;3.70;;;;;;;23.78;38.44;99932.05;470638;1190;142053;-64
2021/09/27 09:33:47;;;;;;;7.40;3.30;;;;;;;22.24;41.19;99927.16;477867;1190;141103;-64
2021/09/27 09:43:53;;;;;;;6.30;3.90;;;;;;;21.10;43.57;99910.73;475952;1190;140671;-59
2021/09/27 09:54:05;;;;;;;6.10;3.30;;;;;;;20.69;45.44;99898.26;470046;1180;143357;-65
2021/09/27 10:04:14;;;;;;;6.20;3.20;;;;;;;20.49;46.21;99906.71;462443;1190;141459;-64
2021/09/27 10:14:23;;;;;;;4.10;3.30;;;;;;;20.11;47.47;99896.98;473808;1190;141388;-64
2021/09/27 10:24:41;;;;;;;5.10;4.10;;;;;;;19.80;48.34;99886.81;474682;1190;140695;-66
2021/09/27 10:34:47;;;;;;;7.60;4.00;;;;;;;19.55;49.41;99883.86;477528;1191;143014;-64
2021/09/27 10:44:59;;;;;;;6.20;4.00;;;;;;;19.27;50.18;99870.83;476752;1191;142369;-64
2021/09/27 10:55:15;;;;;;;6.90;3.80;;;;;;;19.28;50.82;99871.47;476040;1191;141431;-65
2021/09/27 11:05:36;;;;;;;8.30;3.90;;;;;;;19.10;51.17;99862.64;467538;1191;141154;-65
2021/09/27 11:15:52;;;;;;;5.40;4.40;;;;;;;19.02;51.72;99857.70;472888;1192;141347;-64
2021/09/27 11:26:27;;;;;;;7.50;4.60;;;;;;;18.91;51.94;99859.27;475053;1191;141266;-64
2021/09/27 11:37:06;;;;;;;5.60;4.60;;;;;;;18.78;52.31;99856.23;477506;1191;140882;-64
2021/09/27 11:47:15;;;;;;;8.30;5.30;;;;;;;18.74;52.75;99853.76;473349;1191;141044;-65
2021/09/27 11:57:31;;;;;;;7.70;3.90;;;;;;;18.70;53.08;99843.73;472252;1191;142054;-65
2021/09/27 12:07:43;;;;;;;6.90;5.00;;;;;;;18.75;53.37;99833.42;461068;1192;142084;-63
2021/09/27 12:17:49;;;;;;;8.30;5.10;;;;;;;18.70;53.45;99835.52;474043;1191;140691;-65
2021/09/27 12:28:01;;;;;;;8.70;4.40;;;;;;;18.70;53.71;99829.35;475249;1192;142883;-64
2021/09/27 12:38:07;;;;;;;4.50;3.50;;;;;;;18.66;53.54;99828.79;464773;1192;142037;-63
2021/09/27 12:48:19;;;;;;;5.30;3.70;;;;;;;18.64;53.76;99821.73;477293;1191;141121;-64
2021/09/27 12:58:35;;;;;;;5.80;3.20;;;;;;;18.77;54.11;99819.59;465884;1192;141054;-63
2021/09/27 13:08:48;;;;;;;7.10;4.30;;;;;;;18.86;53.78;99814.15;473764;1192;142002;-63
2021/09/27 13:18:54;;;;;;;9.10;3.00;;;;;;;18.91;53.91;99804.23;475452;1191;142672;-65
2021/09/27 13:29:02;;;;;;;6.20;3.30;;;;;;;19.00;53.82;99799.93;470641;1192;140898;-65
2021/09/27 13:39:15;;;;;;;5.10;3.80;;;;;;;18.97;53.65;99796.97;477372;1192;144192;-64
2021/09/27 13:49:21;;;;;;;4.20;3.40;;;;;;;18.91;53.59;99791.73;475744;1191;140651;-64
2021/09/27 13:59:27;;;;;;;4.80;2.80;;;;;;;18.94;53.56;99794.40;474729;1190;140787;-66
2021/09/27 14:09:33;;;;;;;5.80;2.70;;;;;;;18.97;53.44;99780.11;469844;1191;141236;-64
2021/09/27 14:19:39;;;;;;;3.60;2.30;;;;;;;18.96;53.32;99779.02;477597;1191;140665;-63
2021/09/27 14:29:45;;;;;;;3.80;3.20;;;;;;;18.71;53.32;99792.52;476576;1191;140468;-63
2021/09/27 14:39:52;;;;;;;6.90;2.90;;;;;;;18.55;53.59;99800.23;477518;1191;140752;-64
2021/09/27 14:50:00;;;;;;;5.50;2.80;;;;;;;18.41;53.68;99795.65;461365;1191;10001688;-64
2021/09/27 15:00:07;;;;;;;;;;;;;;;18.22;54.05;99789.98;469323;1190;142883;-63
2021/09/27 15:10:16;;;;;;;6.90;3.30;;;;;;;17.97;54.47;99799.34;468558;1191;127887;-65
2021/09/27 15:20:41;;;;;;;6.00;3.20;;;;;;;17.67;54.78;99803.45;463775;1191;142002;-64
2021/09/27 15:30:47;;;;;;;4.50;3.00;;;;;;;17.34;55.33;99809.16;465532;1191;140703;-64
2021/09/27 15:40:55;;;;;;;7.70;3.60;;;;;;;17.08;55.97;99814.80;464080;1191;141112;-63
2021/09/27 15:51:01;;;;;;;5.60;3.80;;;;;;;16.85;56.21;99818.39;462946;1191;140888;-60
2021/09/27 16:01:10;;;;;;;7.90;3.50;;;;;;;16.68;56.55;99824.96;465729;1192;145108;-65
2021/09/27 16:11:17;;;;;;;6.30;3.30;;;;;;;16.55;56.92;99825.70;471119;1191;141008;-61
2021/09/27 16:21:27;;;;;;;4.60;2.70;;;;;;;16.40;57.14;99827.20;474686;1191;140676;-60
2021/09/27 16:31:36;;;;;;;7.40;3.90;;;;;;;16.18;57.40;99835.49;477588;1190;140368;-66
2021/09/27 16:41:46;;;;;;;4.00;2.60;;;;;;;15.98;57.76;99843.91;470049;1190;142910;-66
2021/09/27 16:52:15;;;;;;;6.10;4.40;;;;;;;15.76;58.45;99849.00;463408;1190;141324;-72
2021/09/27 17:02:21;;;;;;;7.30;4.90;;;;;;;15.47;58.86;99850.05;463174;1190;143680;-67
2021/09/27 17:12:28;;;;;;;5.80;3.70;;;;;;;15.13;59.13;99849.73;477790;1190;142651;-69
2021/09/27 17:22:35;;;;;;;8.00;4.50;;;;;;;14.87;59.16;99855.65;477569;1190;142155;-67
2021/09/27 17:32:41;;;;;;;6.20;3.80;;;;;;;14.67;59.34;99854.17;476735;1190;141585;-66
2021/09/27 17:42:47;;;;;;;8.70;4.30;;;;;;;14.44;59.63;99861.23;477523;1190;142110;-64
2021/09/27 17:52:53;;;;;;;9.00;4.40;;;;;;;14.22;60.06;99862.08;477547;1190;141892;-62
2021/09/27 18:02:59;;;;;;;7.40;4.10;;;;;;;14.04;60.44;99865.01;476832;1190;141340;-61
2021/09/27 18:13:05;;;;;;;6.30;4.60;;;;;;;13.86;60.84;99865.13;469009;1190;140993;-61
2021/09/27 18:23:12;;;;;;;6.80;4.30;;;;;;;13.68;61.25;99865.74;476917;1190;143235;-60
2021/09/27 18:33:18;;;;;;;5.00;4.00;;;;;;;13.50;61.69;99858.90;477613;1190;145304;-59
2021/09/27 18:43:24;;;;;;;9.50;4.30;;;;;;;13.35;62.35;99869.09;477598;1190;142473;-62
2021/09/27 18:53:31;;;;;;;7.70;3.90;;;;;;;13.23;62.76;99872.91;476578;1190;142289;-60
2021/09/27 19:03:39;;;;;;;5.40;3.50;;;;;;;13.10;63.16;99871.33;477344;1190;141005;-62
2021/09/27 19:13:45;;;;;;;5.90;3.30;;;;;;;12.96;63.68;99883.59;477180;1190;142145;-62
2021/09/27 19:23:52;;;;;;;4.40;3.30;;;;;;;12.81;64.10;99883.69;472943;1192;145653;-61
2021/09/27 19:33:58;;;;;;;8.20;4.40;;;;;;;12.66;64.53;99897.05;471435;1191;141641;-61
2021/09/27 19:44:07;;;;;;;6.40;3.40;;;;;;;12.51;64.94;99904.88;475592;1191;141821;-60
2021/09/27 19:54:13;;;;;;;4.80;4.10;;;;;;;12.33;65.46;99918.70;477428;1191;145313;-58
2021/09/27 20:04:20;;;;;;;5.90;3.60;;;;;;;12.19;65.89;99918.52;469866;1191;142368;-58
2021/09/27 20:14:26;;;;;;;5.30;3.90;;;;;;;12.05;66.34;99911.52;459256;1192;143338;-58
2021/09/27 20:24:33;;;;;;;7.20;3.80;;;;;;;11.89;66.80;99918.14;468213;1191;142422;-59
2021/09/27 20:34:38;;;;;;;4.60;3.80;;;;;;;11.74;67.22;99918.38;477803;1190;141287;-59
2021/09/27 20:44:45;;;;;;;4.80;3.70;;;;;;;11.64;67.61;99917.26;471451;1191;141838;-59
2021/09/27 20:54:51;;;;;;;5.50;3.90;;;;;;;11.51;67.98;99917.92;465512;1191;145284;-57
2021/09/27 21:04:58;;;;;;;9.30;5.00;;;;;;;11.40;68.37;99925.05;460901;1193;146185;-57
2021/09/27 21:15:06;;;;;;;7.00;3.90;;;;;;;11.30;68.77;99933.20;461136;1191;142515;-58
2021/09/27 21:25:14;;;;;;;8.20;4.70;;;;;;;11.22;69.09;99942.83;477403;1191;142205;-58
2021/09/27 21:35:20;;;;;;;5.10;3.60;;;;;;;11.11;69.38;99942.09;472449;1191;142407;-59
2021/09/27 21:45:28;;;;;;;6.70;3.40;;;;;;;10.99;69.74;99947.02;477809;1191;143293;-59
2021/09/27 21:55:35;;;;;;;7.10;3.60;;;;;;;10.87;70.04;99951.73;467311;1190;146095;-58
2021/09/27 22:05:42;;;;;;;5.60;3.50;;;;;;;10.73;70.37;99955.15;464377;1191;141668;-58
2021/09/27 22:15:47;;;;;;;6.70;4.20;;;;;;;10.59;70.72;99957.91;462136;1177;141282;-59
2021/09/27 22:25:53;;;;;;;7.00;4.40;;;;;;;10.43;71.14;99955.50;463633;1191;142165;-59
2021/09/27 22:35:59;;;;;;;4.50;4.00;;;;;;;10.27;71.36;99952.17;465354;1192;141418;-57
2021/09/27 22:46:05;;;;;;;4.70;4.30;;;;;;;10.12;71.83;99950.75;460890;1192;142851;-58
2021/09/27 22:56:11;;;;;;;9.20;4.80;;;;;;;9.98;72.27;99947.65;460487;1177;143670;-58
2021/09/27 23:06:18;;;;;;;5.40;3.70;;;;;;;9.85;72.59;99960.63;461330;1192;141880;-58
2021/09/27 23:16:24;;;;;;;5.50;4.10;;;;;;;9.74;72.81;99965.40;461303;1190;140742;-58
2021/09/27 23:26:30;;;;;;;7.20;5.00;;;;;;;9.61;73.26;99964.89;461089;1190;146362;-58
2021/09/27 23:36:36;;;;;;;8.50;4.80;;;;;;;9.53;73.49;99968.98;463703;1190;142560;-56
2021/09/27 23:46:42;;;;;;;5.90;4.70;;;;;;;9.45;73.85;99970.15;461383;1190;141936;-58
2021/09/27 23:56:48;;;;;;;4.70;4.20;;;;;;;9.32;74.05;99965.02;460764;1190;141150;-61
